createdAt,value
2023-03-26T00:01:46.927Z,88.77
2023-03-26T00:04:20.971Z,88.75
2023-03-26T00:06:50.501Z,88.75
2023-03-26T00:09:18.973Z,88.72
2023-03-26T00:11:47.385Z,88.88
2023-03-26T00:14:18.829Z,88.98
2023-03-26T00:16:47.679Z,88.90
2023-03-26T00:19:16.953Z,88.97
2023-03-26T00:21:45.328Z,88.82
2023-03-26T00:24:17.463Z,88.84
2023-03-26T00:26:53.187Z,88.70
2023-03-26T00:29:27.900Z,88.73
2023-03-26T00:31:56.372Z,88.86
2023-03-26T00:34:26.985Z,88.94
2023-03-26T00:36:55.962Z,89.00
2023-03-26T00:39:24.298Z,89.11
2023-03-26T00:41:54.848Z,89.08
2023-03-26T00:44:23.545Z,88.99
2023-03-26T00:46:51.940Z,89.00
2023-03-26T00:49:20.270Z,88.92
2023-03-26T00:51:48.543Z,89.06
2023-03-26T00:54:17.409Z,89.11
2023-03-26T00:56:45.726Z,89.19
2023-03-26T00:59:14.227Z,89.49
2023-03-26T01:01:42.615Z,89.78
2023-03-26T01:04:28.420Z,89.91
2023-03-26T01:07:04.665Z,90.01
2023-03-26T01:09:42.793Z,90.18
2023-03-26T01:12:19.001Z,90.18
2023-03-26T01:14:51.059Z,90.24
2023-03-26T01:17:22.018Z,90.35
2023-03-26T01:20:14.073Z,90.26
2023-03-26T01:22:53.532Z,90.61
2023-03-26T01:25:26.083Z,90.80
2023-03-26T01:27:56.645Z,90.79
2023-03-26T01:30:52.301Z,91.19
2023-03-26T01:33:39.701Z,91.31
2023-03-26T01:36:52.634Z,91.50
2023-03-26T01:39:57.101Z,91.86
2023-03-26T01:42:41.886Z,92.00
2023-03-26T01:45:25.703Z,92.14
2023-03-26T01:47:55.006Z,92.29
2023-03-26T01:50:23.546Z,92.43
2023-03-26T01:52:51.860Z,92.53
2023-03-26T01:55:22.549Z,92.54
2023-03-26T01:57:57.981Z,92.85
2023-03-26T02:00:30.464Z,92.75
2023-03-26T02:03:11.343Z,92.80
2023-03-26T02:05:56.744Z,92.83
2023-03-26T02:08:52.906Z,93.02
2023-03-26T02:11:23.033Z,93.17
2023-03-26T02:13:52.250Z,93.36
2023-03-26T02:16:20.860Z,93.32
2023-03-26T02:18:55.757Z,93.70
2023-03-26T02:21:26.534Z,93.99
2023-03-26T02:24:03.231Z,94.13
2023-03-26T02:26:35.277Z,94.31
2023-03-26T02:29:03.893Z,94.39
2023-03-26T02:31:32.402Z,94.26
2023-03-26T02:34:00.883Z,94.37
2023-03-26T02:36:29.320Z,94.34
2023-03-26T02:38:58.160Z,94.38
2023-03-26T02:41:26.760Z,94.46
2023-03-26T02:43:55.259Z,94.39
2023-03-26T02:46:23.778Z,94.47
2023-03-26T02:48:52.184Z,94.45
2023-03-26T02:51:20.531Z,94.30
2023-03-26T02:53:48.864Z,94.13
2023-03-26T02:56:17.230Z,94.09
2023-03-26T02:58:46.957Z,93.84
2023-03-26T03:01:18.301Z,93.71
2023-03-26T03:03:49.742Z,93.54
2023-03-26T03:06:18.824Z,93.56
2023-03-26T03:08:47.590Z,93.48
2023-03-26T03:11:22.184Z,93.28
2023-03-26T03:13:51.101Z,93.28
2023-03-26T03:16:20.160Z,93.23
2023-03-26T03:18:58.111Z,93.30
2023-03-26T03:21:29.197Z,93.45
2023-03-26T03:23:59.825Z,93.58
2023-03-26T03:26:30.103Z,93.67
2023-03-26T03:28:58.714Z,93.59
2023-03-26T03:31:28.475Z,93.33
2023-03-26T03:33:56.990Z,93.26
2023-03-26T03:36:28.094Z,93.18
2023-03-26T03:39:02.960Z,93.06
2023-03-26T03:41:31.563Z,92.91
2023-03-26T03:44:01.828Z,92.97
2023-03-26T03:46:30.639Z,92.84
2023-03-26T03:48:59.113Z,92.60
2023-03-26T03:51:27.391Z,92.52
2023-03-26T03:53:55.981Z,92.39
2023-03-26T03:56:26.269Z,92.19
2023-03-26T03:58:54.671Z,91.99
2023-03-26T04:01:23.536Z,92.03
2023-03-26T04:03:51.983Z,91.73
2023-03-26T04:06:20.488Z,91.72
2023-03-26T04:08:48.913Z,91.55
2023-03-26T04:11:17.885Z,91.29
2023-03-26T04:13:46.280Z,91.32
2023-03-26T04:16:15.376Z,91.31
2023-03-26T04:18:46.478Z,91.07
2023-03-26T04:21:17.034Z,91.04
2023-03-26T04:23:45.750Z,90.87
2023-03-26T04:26:18.672Z,90.71
2023-03-26T04:28:59.834Z,90.59
2023-03-26T04:31:30.585Z,90.47
2023-03-26T04:34:15.450Z,90.42
2023-03-26T04:36:46.296Z,90.06
2023-03-26T04:39:14.668Z,90.01
2023-03-26T04:41:43.121Z,89.93
2023-03-26T04:44:12.010Z,89.80
2023-03-26T04:46:43.968Z,89.60
2023-03-26T04:49:12.389Z,89.38
2023-03-26T04:51:42.086Z,89.11
2023-03-26T04:54:13.077Z,88.98
2023-03-26T04:56:54.317Z,89.08
2023-03-26T04:59:30.188Z,89.09
2023-03-26T05:02:00.367Z,89.42
2023-03-26T05:04:34.291Z,89.90
2023-03-26T05:07:03.219Z,89.93
2023-03-26T05:09:31.899Z,90.14
2023-03-26T05:12:00.405Z,90.41
2023-03-26T05:14:28.704Z,90.29
2023-03-26T05:16:57.124Z,90.59
2023-03-26T05:19:25.775Z,90.71
2023-03-26T05:21:54.143Z,90.94
2023-03-26T05:24:24.750Z,91.23
2023-03-26T05:26:53.073Z,91.44
2023-03-26T05:29:24.106Z,91.46
2023-03-26T05:31:52.503Z,91.52
2023-03-26T05:34:24.076Z,91.56
2023-03-26T05:36:53.109Z,91.54
2023-03-26T05:39:25.833Z,91.45
2023-03-26T05:41:54.205Z,91.45
2023-03-26T05:44:22.605Z,91.52
2023-03-26T05:46:51.305Z,91.67
2023-03-26T05:49:19.649Z,91.89
2023-03-26T05:57:00.812Z,91.99
2023-03-26T05:59:29.105Z,92.27
2023-03-26T06:01:57.523Z,92.21
2023-03-26T06:04:25.956Z,92.39
2023-03-26T06:06:54.377Z,92.29
2023-03-26T06:09:23.001Z,92.35
2023-03-26T06:11:51.478Z,92.24
2023-03-26T06:14:19.922Z,92.25
2023-03-26T06:16:49.286Z,92.03
2023-03-26T06:19:17.655Z,92.03
2023-03-26T06:21:46.178Z,91.99
2023-03-26T06:24:16.546Z,91.75
2023-03-26T06:26:45.080Z,91.63
2023-03-26T06:29:15.438Z,91.55
2023-03-26T06:31:43.930Z,91.51
2023-03-26T06:34:12.432Z,91.53
2023-03-26T06:36:40.892Z,91.54
2023-03-26T06:39:09.296Z,91.35
2023-03-26T06:41:37.565Z,91.32
2023-03-26T06:44:05.979Z,91.15
2023-03-26T06:46:34.396Z,90.88
2023-03-26T06:49:03.014Z,90.66
2023-03-26T06:51:31.577Z,90.72
2023-03-26T06:54:00.025Z,90.63
2023-03-26T06:56:30.839Z,90.61
2023-03-26T06:59:02.856Z,90.58
2023-03-26T07:01:36.503Z,90.37
2023-03-26T07:04:06.270Z,90.26
2023-03-26T07:06:34.857Z,90.29
2023-03-26T07:09:06.380Z,90.13
2023-03-26T07:11:42.371Z,90.05
2023-03-26T07:14:14.453Z,89.64
2023-03-26T07:16:46.379Z,89.51
2023-03-26T07:19:15.493Z,89.31
2023-03-26T07:21:49.016Z,89.00
2023-03-26T07:24:49.429Z,89.01
2023-03-26T07:27:52.309Z,88.84
2023-03-26T07:39:00.402Z,89.20
2023-03-26T07:42:11.290Z,89.78
2023-03-26T07:45:11.345Z,90.30
2023-03-26T07:51:20.300Z,90.60
2023-03-26T07:53:56.489Z,90.42
2023-03-26T07:57:37.140Z,90.28
2023-03-26T08:00:31.667Z,89.89
2023-03-26T08:06:37.331Z,90.01
2023-03-26T08:09:54.165Z,89.92
2023-03-26T08:12:59.104Z,89.53
2023-03-26T08:16:01.385Z,89.25
2023-03-26T08:19:20.125Z,88.70
2023-03-26T08:21:59.864Z,87.87
2023-03-26T08:27:51.919Z,87.87
2023-03-26T08:30:27.923Z,87.23
2023-03-26T08:33:16.760Z,86.72
2023-03-26T08:35:47.558Z,86.42
2023-03-26T08:38:38.380Z,86.28
2023-03-26T08:41:23.459Z,85.24
2023-03-26T08:48:08.163Z,85.80
2023-03-26T08:50:52.549Z,85.11
2023-03-26T08:57:19.143Z,83.41
2023-03-26T09:00:21.671Z,82.96
2023-03-26T09:03:25.172Z,82.62
2023-03-26T09:06:42.581Z,81.87
2023-03-26T09:18:54.222Z,81.25
2023-03-26T09:21:39.620Z,80.18
2023-03-26T09:25:03.439Z,80.19
2023-03-26T09:28:03.517Z,80.36
2023-03-26T09:31:01.408Z,79.85
2023-03-26T09:33:48.928Z,80.80
2023-03-26T09:36:58.127Z,81.47
2023-03-26T09:39:44.669Z,82.03
2023-03-26T09:43:17.105Z,83.03
2023-03-26T09:46:26.507Z,83.16
2023-03-26T09:49:02.009Z,82.51
2023-03-26T09:52:36.846Z,82.01
2023-03-26T09:55:23.677Z,81.96
2023-03-26T09:58:42.106Z,81.80
2023-03-26T10:01:45.146Z,81.61
2023-03-26T10:05:00.460Z,80.31
2023-03-26T10:08:20.515Z,80.45
2023-03-26T10:11:13.576Z,80.20
2023-03-26T10:14:22.844Z,79.48
2023-03-26T10:17:45.815Z,79.34
2023-03-26T10:21:01.930Z,79.63
2023-03-26T10:23:48.285Z,79.29
2023-03-26T10:27:08.872Z,79.15
2023-03-26T10:29:52.323Z,77.85
2023-03-26T10:32:56.401Z,77.71
2023-03-26T10:36:09.035Z,77.50
2023-03-26T10:38:55.861Z,78.00
2023-03-26T10:42:21.307Z,78.57
2023-03-26T10:45:18.985Z,78.67
2023-03-26T10:51:55.283Z,78.69
2023-03-26T10:55:16.523Z,78.97
2023-03-26T10:58:13.812Z,78.66
2023-03-26T11:00:56.530Z,78.90
2023-03-26T11:03:52.159Z,78.36
2023-03-26T11:06:41.838Z,77.84
2023-03-26T11:09:38.929Z,77.56
2023-03-26T11:12:36.593Z,77.19
2023-03-26T11:15:21.820Z,77.46
2023-03-26T11:18:17.096Z,76.07
2023-03-26T11:21:19.880Z,75.31
2023-03-26T11:24:21.124Z,75.96
2023-03-26T11:27:15.193Z,75.36
2023-03-26T11:30:27.801Z,74.73
2023-03-26T11:33:05.854Z,73.67
2023-03-26T11:35:39.843Z,72.57
2023-03-26T11:38:21.752Z,72.31
2023-03-26T11:40:55.300Z,71.73
2023-03-26T11:43:34.396Z,71.36
2023-03-26T11:46:12.085Z,71.05
2023-03-26T11:48:57.638Z,70.58
2023-03-26T11:51:36.252Z,69.16
2023-03-26T11:54:08.077Z,69.37
2023-03-26T11:57:05.087Z,69.37
2023-03-26T11:59:55.888Z,69.11
2023-03-26T12:02:32.584Z,69.30
2023-03-26T12:05:13.168Z,69.90
2023-03-26T12:08:02.147Z,70.10
2023-03-26T12:10:42.768Z,68.77
2023-03-26T12:13:44.952Z,68.66
2023-03-26T12:16:18.946Z,67.73
2023-03-26T12:19:19.883Z,67.55
2023-03-26T12:21:51.745Z,67.31
2023-03-26T12:24:32.815Z,67.41
2023-03-26T12:27:24.174Z,67.52
2023-03-26T12:30:11.059Z,67.39
2023-03-26T12:32:46.478Z,67.82
2023-03-26T12:35:36.314Z,67.88
2023-03-26T12:38:33.071Z,68.05
2023-03-26T12:43:01.493Z,67.78
2023-03-26T12:44:54.654Z,67.61
2023-03-26T12:48:00.800Z,66.86
2023-03-26T12:50:34.007Z,67.05
2023-03-26T12:53:38.574Z,67.79
2023-03-26T12:57:11.777Z,68.26
2023-03-26T12:59:59.565Z,68.42
2023-03-26T13:03:01.624Z,68.64
2023-03-26T13:05:51.252Z,68.48
2023-03-26T13:08:56.810Z,68.35
2023-03-26T13:11:50.121Z,68.59
2023-03-26T13:22:08.309Z,69.37
2023-03-26T13:24:59.004Z,69.30
2023-03-26T13:27:55.488Z,69.39
2023-03-26T13:33:40.032Z,70.12
2023-03-26T13:36:41.886Z,69.86
2023-03-26T13:39:33.339Z,69.84
2023-03-26T13:42:41.661Z,69.53
2023-03-26T13:45:28.783Z,69.35
2023-03-26T13:48:00.459Z,69.42
2023-03-26T13:50:42.746Z,69.29
2023-03-26T13:53:46.709Z,69.00
2023-03-26T13:56:19.918Z,68.90
2023-03-26T13:59:00.426Z,68.53
2023-03-26T14:01:41.318Z,68.57
2023-03-26T14:04:54.974Z,68.40
2023-03-26T14:07:33.024Z,68.50
2023-03-26T14:10:15.544Z,68.82
2023-03-26T14:13:07.891Z,69.10
2023-03-26T14:16:00.918Z,69.02
2023-03-26T14:19:25.948Z,69.35
2023-03-26T14:22:39.371Z,69.92
2023-03-26T14:26:02.846Z,70.41
2023-03-26T14:28:51.534Z,70.47
2023-03-26T14:31:58.149Z,70.37
2023-03-26T14:35:20.460Z,70.38
2023-03-26T14:38:40.035Z,70.97
2023-03-26T14:41:56.549Z,71.21
2023-03-26T14:45:11.476Z,71.70
2023-03-26T14:48:38.431Z,72.13
2023-03-26T14:51:42.479Z,72.24
2023-03-26T14:54:20.387Z,72.92
2023-03-26T14:57:52.553Z,73.22
2023-03-26T15:01:19.222Z,73.48
2023-03-26T15:04:09.108Z,74.31
2023-03-26T15:07:18.912Z,75.09
2023-03-26T15:10:25.383Z,75.25
2023-03-26T15:13:51.369Z,76.25
2023-03-26T15:16:50.660Z,77.75
2023-03-26T15:20:34.761Z,79.02
2023-03-26T15:23:47.649Z,80.17
2023-03-26T15:26:41.753Z,81.51
2023-03-26T15:29:55.889Z,82.55
2023-03-26T15:32:43.225Z,81.80
2023-03-26T15:35:38.155Z,81.75
2023-03-26T15:38:43.560Z,81.64
2023-03-26T15:41:43.467Z,81.67
2023-03-26T15:47:28.936Z,81.75
2023-03-26T15:50:29.559Z,82.01
2023-03-26T15:53:10.368Z,81.85
2023-03-26T15:56:09.290Z,82.00
2023-03-26T16:04:57.510Z,81.34
2023-03-26T16:07:42.355Z,81.49
2023-03-26T16:10:28.717Z,81.28
2023-03-26T16:13:35.672Z,81.20
2023-03-26T16:16:04.283Z,82.12
2023-03-26T16:22:16.328Z,82.49
2023-03-26T16:30:07.030Z,82.95
2023-03-26T16:32:42.295Z,83.27
2023-03-26T16:35:13.883Z,83.74
2023-03-26T16:37:50.693Z,84.27
2023-03-26T16:40:22.489Z,84.42
2023-03-26T16:43:26.837Z,84.61
2023-03-26T16:46:45.329Z,84.93
2023-03-26T16:49:37.993Z,85.39
2023-03-26T16:52:09.926Z,85.77
2023-03-26T16:55:14.853Z,86.18
2023-03-26T16:58:36.722Z,86.59
2023-03-26T17:01:21.565Z,87.07
2023-03-26T17:03:59.007Z,87.37
2023-03-26T17:06:53.383Z,87.62
2023-03-26T17:09:51.621Z,88.04
2023-03-26T17:12:53.713Z,88.26
2023-03-26T17:15:28.190Z,88.60
2023-03-26T17:18:30.079Z,88.77
2023-03-26T17:21:26.222Z,89.19
2023-03-26T17:24:43.439Z,89.43
2023-03-26T17:27:51.306Z,90.03
2023-03-26T17:30:47.093Z,90.27
2023-03-26T17:33:25.238Z,90.48
2023-03-26T17:36:42.698Z,90.52
2023-03-26T17:39:39.169Z,90.72
2023-03-26T17:42:33.077Z,90.96
2023-03-26T17:45:25.203Z,91.08
2023-03-26T17:48:02.533Z,91.34
2023-03-26T17:50:42.050Z,91.49
2023-03-26T17:53:36.330Z,91.65
2023-03-26T17:56:13.969Z,91.97
2023-03-26T17:58:54.707Z,92.05
2023-03-26T18:01:41.463Z,92.22
2023-03-26T18:04:21.558Z,92.28
2023-03-26T18:07:15.346Z,92.69
2023-03-26T18:10:16.926Z,93.04
2023-03-26T18:13:17.103Z,93.28
2023-03-26T18:16:18.662Z,93.45
2023-03-26T18:18:57.487Z,93.58
2023-03-26T18:21:39.561Z,93.73
2023-03-26T18:24:15.221Z,93.82
2023-03-26T18:26:54.968Z,93.93
2023-03-26T18:29:33.714Z,94.03
2023-03-26T18:32:22.452Z,93.97
2023-03-26T18:34:58.409Z,93.97
2023-03-26T18:37:35.991Z,94.08
2023-03-26T18:40:15.501Z,94.21
2023-03-26T18:42:49.726Z,94.23
2023-03-26T18:45:24.177Z,94.30
2023-03-26T18:48:00.211Z,94.43
2023-03-26T18:50:42.024Z,94.47
2023-03-26T18:53:25.747Z,94.57
2023-03-26T18:55:54.060Z,94.59
2023-03-26T18:58:32.910Z,94.69
2023-03-26T19:01:05.899Z,94.74
2023-03-26T19:03:40.708Z,94.84
2023-03-26T19:06:12.693Z,94.95
2023-03-26T19:08:44.799Z,94.93
2023-03-26T19:11:17.934Z,95.03
2023-03-26T19:14:03.444Z,95.26
2023-03-26T19:16:36.519Z,95.19
2023-03-26T19:19:07.938Z,95.32
2023-03-26T19:21:37.040Z,95.30
2023-03-26T19:24:06.958Z,95.36
2023-03-26T19:26:37.134Z,95.42
2023-03-26T19:29:06.402Z,95.57
2023-03-26T19:31:39.197Z,95.52
2023-03-26T19:34:40.473Z,95.50
2023-03-26T19:37:23.638Z,95.67
2023-03-26T19:40:06.234Z,95.65
2023-03-26T19:42:43.031Z,95.51
2023-03-26T19:45:20.396Z,95.73
2023-03-26T19:47:57.338Z,95.91
2023-03-26T19:50:42.233Z,95.67
2023-03-26T19:53:28.542Z,95.79
2023-03-26T19:56:04.428Z,95.86
2023-03-26T19:58:35.586Z,95.93
2023-03-26T20:01:05.688Z,95.95
2023-03-26T20:03:44.063Z,96.06
2023-03-26T20:06:16.629Z,96.17
2023-03-26T20:08:45.873Z,96.33
2023-03-26T20:11:33.210Z,96.33
2023-03-26T20:14:02.418Z,96.48
2023-03-26T20:16:33.641Z,96.57
2023-03-26T20:19:04.725Z,96.68
2023-03-26T20:21:34.817Z,96.81
2023-03-26T20:24:12.216Z,96.84
2023-03-26T20:26:40.670Z,96.96
2023-03-26T20:29:10.222Z,97.11
2023-03-26T20:31:41.902Z,97.11
2023-03-26T20:34:22.603Z,97.26
2023-03-26T20:36:55.687Z,97.16
2023-03-26T20:39:25.432Z,97.27
2023-03-26T20:41:55.219Z,97.24
2023-03-26T20:44:23.675Z,97.38
2023-03-26T20:46:53.059Z,97.23
2023-03-26T20:49:22.227Z,97.28
2023-03-26T20:51:50.738Z,97.24
2023-03-26T20:54:23.338Z,97.36
2023-03-26T20:56:54.201Z,97.35
2023-03-26T20:59:29.397Z,97.42
2023-03-26T21:01:59.496Z,97.45
2023-03-26T21:04:28.153Z,97.40
2023-03-26T21:07:07.170Z,97.44
2023-03-26T21:09:40.355Z,97.59
2023-03-26T21:12:21.586Z,97.53
2023-03-26T21:14:51.057Z,97.37
2023-03-26T21:17:22.391Z,97.56
2023-03-26T21:19:52.085Z,97.58
2023-03-26T21:22:37.524Z,97.59
2023-03-26T21:25:38.472Z,97.49
2023-03-26T21:28:42.370Z,97.47
2023-03-26T21:31:18.603Z,97.54
2023-03-26T21:33:49.450Z,97.58
2023-03-26T21:36:20.113Z,97.56
2023-03-26T21:38:50.603Z,97.53
2023-03-26T21:41:36.093Z,97.59
2023-03-26T21:44:04.652Z,97.69
2023-03-26T21:46:33.616Z,97.71
2023-03-26T21:49:02.771Z,97.86
2023-03-26T21:51:32.086Z,97.93
2023-03-26T21:54:01.066Z,97.93
2023-03-26T21:56:50.480Z,98.03
2023-03-26T21:59:43.927Z,98.14
2023-03-26T22:02:23.891Z,98.20
2023-03-26T22:05:16.390Z,98.41
2023-03-26T22:08:05.228Z,98.52
2023-03-26T22:10:33.610Z,98.65
2023-03-26T22:13:02.068Z,98.72
2023-03-26T22:15:31.297Z,98.88
2023-03-26T22:18:02.798Z,99.06
2023-03-26T22:20:31.518Z,99.09
2023-03-26T22:23:00.977Z,99.20
2023-03-26T22:25:29.340Z,99.11
2023-03-26T22:27:57.699Z,99.26
2023-03-26T22:30:27.283Z,99.21
2023-03-26T22:32:55.868Z,99.22
2023-03-26T22:35:26.176Z,99.26
2023-03-26T22:38:00.904Z,99.32
2023-03-26T22:40:29.873Z,99.20
2023-03-26T22:42:58.357Z,99.18
2023-03-26T22:45:27.849Z,99.26
2023-03-26T22:48:03.552Z,99.20
2023-03-26T22:50:33.622Z,99.30
2023-03-26T22:53:01.960Z,99.30
2023-03-26T22:55:30.320Z,99.28
2023-03-26T22:57:58.750Z,99.43
2023-03-26T23:00:27.305Z,99.43
2023-03-26T23:03:00.384Z,99.48
2023-03-26T23:05:29.390Z,99.39
2023-03-26T23:07:57.923Z,99.47
2023-03-26T23:10:26.508Z,99.63
2023-03-26T23:12:54.793Z,99.72
2023-03-26T23:15:25.868Z,99.70
2023-03-26T23:17:55.249Z,99.71
2023-03-26T23:20:23.809Z,99.67
2023-03-26T23:22:52.561Z,99.78
2023-03-26T23:25:21.330Z,99.86
2023-03-26T23:27:50.757Z,99.92
2023-03-26T23:30:19.404Z,99.99
2023-03-26T23:32:48.002Z,99.99
2023-03-26T23:35:16.571Z,100.00
2023-03-26T23:37:44.882Z,100.00
2023-03-26T23:40:13.773Z,100.00
2023-03-26T23:42:42.533Z,100.00
2023-03-26T23:45:12.333Z,99.99
2023-03-26T23:47:42.388Z,100.00
2023-03-26T23:50:11.288Z,100.00
2023-03-26T23:52:39.864Z,100.00
2023-03-26T23:55:08.772Z,100.00
2023-03-26T23:57:37.159Z,100.00
